Time;durP1;ratioP1;P1;durP2;ratioP2;P2;SDS_P1;SDS_P2;PMS_P1;PMS_P2;Temp;Humidity;BMP_temperature;BMP_pressure;BME280_temperature;BME280_humidity;BME280_pressure;Samples;Min_cycle;Max_cycle;Signal;HPM_P1;HPM_P2
2023/09/10 00:00:32;;;;;;;12.75;9.85;;;;;21.40;98804.00;;;;4935093;29;20036;-71
2023/09/10 00:02:58;;;;;;;14.23;9.70;;;;;21.40;98811.00;;;;4934353;29;20134;-72
2023/09/10 00:05:25;;;;;;;10.27;9.20;;;;;21.20;98805.00;;;;4933655;29;20048;-72
2023/09/10 00:07:52;;;;;;;10.85;9.55;;;;;21.10;98805.00;;;;4934645;29;20043;-72
2023/09/10 00:10:19;;;;;;;11.77;9.88;;;;;21.00;98816.00;;;;4935242;29;20059;-73
2023/09/10 00:12:46;;;;;;;10.00;8.95;;;;;21.10;98809.00;;;;4935485;29;20103;-73
2023/09/10 00:15:12;;;;;;;10.70;9.30;;;;;21.10;98810.00;;;;4933513;29;20127;-72
2023/09/10 00:17:39;;;;;;;14.13;10.25;;;;;21.10;98810.00;;;;4934214;29;20146;-72
2023/09/10 00:20:07;;;;;;;10.75;9.73;;;;;21.00;98810.00;;;;4935359;29;20051;-72
2023/09/10 00:22:34;;;;;;;13.05;10.23;;;;;20.90;98806.00;;;;4933805;29;20055;-72
2023/09/10 00:25:01;;;;;;;11.65;9.32;;;;;20.80;98799.00;;;;4933430;29;20055;-73
2023/09/10 00:27:27;;;;;;;10.70;9.60;;;;;20.70;98799.00;;;;4935113;29;20067;-73
2023/09/10 00:29:54;;;;;;;10.82;9.70;;;;;20.60;98806.00;;;;4933908;29;20489;-74
2023/09/10 00:32:21;;;;;;;10.90;9.75;;;;;20.60;98810.00;;;;4934278;29;20051;-74
2023/09/10 00:34:48;;;;;;;11.23;9.20;;;;;20.60;98800.00;;;;4935311;29;20075;-73
2023/09/10 00:37:16;;;;;;;9.85;8.85;;;;;20.50;98803.00;;;;4918530;29;20051;-72
2023/09/10 00:39:43;;;;;;;11.57;9.57;;;;;20.50;98797.00;;;;4933636;29;20415;-72
2023/09/10 00:42:10;;;;;;;10.23;9.00;;;;;20.50;98798.00;;;;4933777;29;20047;-72
2023/09/10 00:44:37;;;;;;;11.52;9.43;;;;;20.50;98794.00;;;;4934535;29;20091;-72
2023/09/10 00:47:04;;;;;;;11.75;9.13;;;;;20.60;98797.00;;;;4933836;29;20086;-73
2023/09/10 00:49:31;;;;;;;10.63;9.38;;;;;20.60;98801.00;;;;4918103;29;20050;-72
2023/09/10 00:52:04;;;;;;;11.60;9.20;;;;;20.60;98793.00;;;;4918020;29;20051;-72
2023/09/10 00:54:32;;;;;;;11.73;10.10;;;;;20.40;98798.00;;;;4933248;29;20052;-72
2023/09/10 00:57:00;;;;;;;11.15;9.48;;;;;20.30;98796.00;;;;4933720;29;20509;-72
2023/09/10 00:59:31;;;;;;;14.90;9.80;;;;;20.20;98792.00;;;;4933642;29;20043;-73
2023/09/10 01:01:58;;;;;;;12.43;10.38;;;;;20.20;98800.00;;;;4917983;29;20107;-72
2023/09/10 01:04:25;;;;;;;11.93;10.02;;;;;20.10;98797.00;;;;4934228;29;20044;-72
2023/09/10 01:06:52;;;;;;;15.07;10.90;;;;;20.10;98793.00;;;;4918105;29;20055;-72
2023/09/10 01:09:19;;;;;;;13.85;9.38;;;;;20.00;98801.00;;;;4933519;29;20059;-72
2023/09/10 01:12:31;;;;;;;11.95;9.80;;;;;20.00;98795.00;;;;4933733;29;20143;-72
2023/09/10 01:15:07;;;;;;;13.15;9.48;;;;;20.00;98798.00;;;;4934173;29;20565;-71
2023/09/10 01:17:45;;;;;;;13.02;9.77;;;;;20.00;98791.00;;;;4937760;29;20074;-72
2023/09/10 01:20:37;;;;;;;11.38;9.48;;;;;20.00;98786.00;;;;4937736;29;20458;-73
2023/09/10 01:23:08;;;;;;;11.60;9.20;;;;;19.90;98796.00;;;;4945068;29;20572;-72
2023/09/10 01:25:35;;;;;;;11.30;9.38;;;;;19.90;98787.00;;;;4943013;29;20062;-72
2023/09/10 01:28:04;;;;;;;9.98;8.90;;;;;19.80;98780.00;;;;4941754;29;20054;-72
2023/09/10 01:30:32;;;;;;;10.35;8.90;;;;;19.80;98782.00;;;;4937308;29;20051;-72
2023/09/10 01:33:17;;;;;;;11.43;9.25;;;;;19.70;98770.00;;;;4937386;29;20051;-73
2023/09/10 01:35:52;;;;;;;11.73;9.60;;;;;19.70;98777.00;;;;4936442;29;20055;-73
2023/09/10 01:38:52;;;;;;;9.93;8.90;;;;;19.70;98776.00;;;;4936971;29;20075;-72
2023/09/10 01:41:20;;;;;;;12.65;9.63;;;;;19.70;98776.00;;;;4936935;29;20107;-72
2023/09/10 01:43:48;;;;;;;13.98;8.75;;;;;19.70;98772.00;;;;4923278;29;20052;-72
2023/09/10 01:46:16;;;;;;;11.65;9.15;;;;;19.70;98774.00;;;;4901938;29;20138;-73
2023/09/10 01:48:43;;;;;;;14.10;9.65;;;;;19.60;98767.00;;;;4917946;29;20127;-73
2023/09/10 01:51:09;;;;;;;11.27;9.15;;;;;19.70;98778.00;;;;4919130;29;20068;-73
2023/09/10 01:53:36;;;;;;;10.07;8.57;;;;;19.70;98768.00;;;;4917099;29;20140;-73
2023/09/10 01:56:03;;;;;;;14.07;9.55;;;;;19.60;98758.00;;;;4919318;29;20090;-72
2023/09/10 01:58:29;;;;;;;10.85;8.63;;;;;19.50;98765.00;;;;4917748;29;20072;-73
2023/09/10 02:00:56;;;;;;;11.18;8.88;;;;;19.50;98764.00;;;;4917235;29;20040;-74
2023/09/10 02:03:22;;;;;;;10.75;9.25;;;;;19.50;98764.00;;;;4918926;29;20040;-72
2023/09/10 02:05:49;;;;;;;10.13;8.80;;;;;19.50;98756.00;;;;4918348;29;20491;-73
2023/09/10 02:08:16;;;;;;;10.68;8.48;;;;;19.60;98758.00;;;;4917412;29;20068;-72
2023/09/10 02:10:43;;;;;;;14.10;9.27;;;;;19.70;98758.00;;;;4917484;29;20044;-73
2023/09/10 02:13:10;;;;;;;15.55;9.80;;;;;19.60;98744.00;;;;4933083;29;20052;-72
2023/09/10 02:15:36;;;;;;;10.90;8.70;;;;;19.60;98749.00;;;;4917682;29;20537;-71
2023/09/10 02:18:03;;;;;;;12.77;9.75;;;;;19.50;98751.00;;;;4918473;29;20055;-71
2023/09/10 02:20:36;;;;;;;10.18;9.18;;;;;19.50;98761.00;;;;4918604;29;20521;-71
2023/09/10 02:23:04;;;;;;;9.80;8.80;;;;;19.50;98760.00;;;;4918669;29;20066;-73
2023/09/10 02:25:32;;;;;;;10.90;9.38;;;;;19.60;98757.00;;;;4916832;29;20194;-70
2023/09/10 02:28:01;;;;;;;10.65;9.48;;;;;19.70;98763.00;;;;4916565;29;20047;-70
2023/09/10 02:30:28;;;;;;;11.02;8.93;;;;;19.70;98759.00;;;;4918979;29;20489;-70
2023/09/10 02:32:55;;;;;;;10.10;8.98;;;;;19.70;98760.00;;;;4901828;29;20083;-70
2023/09/10 02:35:22;;;;;;;10.77;9.57;;;;;19.60;98752.00;;;;4916593;29;20147;-71
2023/09/10 02:37:49;;;;;;;11.07;9.57;;;;;19.60;98757.00;;;;4917158;29;20080;-70
2023/09/10 02:40:16;;;;;;;11.23;9.43;;;;;19.60;98750.00;;;;4902108;29;20044;-71
2023/09/10 02:42:42;;;;;;;10.63;9.57;;;;;19.60;98755.00;;;;4902217;29;20108;-71
2023/09/10 02:45:09;;;;;;;12.45;9.32;;;;;19.40;98759.00;;;;4916527;29;20138;-70
2023/09/10 02:47:36;;;;;;;12.13;9.38;;;;;19.40;98762.00;;;;4918266;29;20502;-71
2023/09/10 02:50:04;;;;;;;9.50;8.48;;;;;19.40;98758.00;;;;4918398;29;20149;-71
2023/09/10 02:52:30;;;;;;;11.88;9.27;;;;;19.40;98756.00;;;;4917126;29;20058;-71
2023/09/10 02:54:57;;;;;;;11.20;10.10;;;;;19.40;98756.00;;;;4917680;29;20230;-72
2023/09/10 02:57:24;;;;;;;10.02;8.70;;;;;19.40;98756.00;;;;4922192;29;20056;-72
2023/09/10 02:59:51;;;;;;;10.55;9.48;;;;;19.30;98756.00;;;;4921167;29;20103;-71
2023/09/10 03:02:17;;;;;;;11.35;9.18;;;;;19.20;98762.00;;;;4920284;29;20414;-71
2023/09/10 03:04:44;;;;;;;10.48;9.45;;;;;19.20;98768.00;;;;4921395;29;20051;-72
2023/09/10 03:07:11;;;;;;;10.80;9.43;;;;;19.20;98768.00;;;;4918548;29;20580;-71
2023/09/10 03:09:37;;;;;;;11.00;9.88;;;;;19.30;98762.00;;;;4916410;29;20067;-71
2023/09/10 03:12:27;;;;;;;12.57;9.30;;;;;19.40;98768.00;;;;4917886;29;20071;-71
2023/09/10 03:14:55;;;;;;;10.10;8.98;;;;;19.40;98767.00;;;;4915414;29;20076;-71
2023/09/10 03:17:24;;;;;;;11.02;8.70;;;;;19.50;98767.00;;;;4916253;29;20048;-71
2023/09/10 03:19:51;;;;;;;11.57;9.20;;;;;19.50;98769.00;;;;4915968;29;20143;-72
2023/09/10 03:22:18;;;;;;;9.80;8.77;;;;;19.50;98761.00;;;;4916112;29;20484;-71
2023/09/10 03:24:45;;;;;;;10.73;8.90;;;;;19.50;98760.00;;;;4915501;29;20043;-70
2023/09/10 03:27:11;;;;;;;9.93;8.93;;;;;19.40;98761.00;;;;4916168;29;20055;-71
2023/09/10 03:29:38;;;;;;;10.13;9.13;;;;;19.40;98764.00;;;;4916039;29;20521;-71
2023/09/10 03:32:08;;;;;;;9.77;8.88;;;;;19.40;98767.00;;;;4900134;29;20055;-72
2023/09/10 03:34:36;;;;;;;10.35;9.35;;;;;19.30;98765.00;;;;4915363;29;20047;-70
2023/09/10 03:37:03;;;;;;;10.27;9.25;;;;;19.10;98763.00;;;;4916568;29;20520;-70
2023/09/10 03:39:30;;;;;;;15.07;10.13;;;;;19.20;98766.00;;;;4915594;29;20431;-70
2023/09/10 03:41:57;;;;;;;11.88;9.85;;;;;19.10;98764.00;;;;4916342;29;20131;-70
2023/09/10 03:44:23;;;;;;;10.15;9.20;;;;;19.00;98762.00;;;;4916453;29;20043;-72
2023/09/10 03:46:51;;;;;;;10.82;9.73;;;;;19.00;98764.00;;;;4916009;29;20080;-71
2023/09/10 03:49:19;;;;;;;10.80;9.70;;;;;19.00;98763.00;;;;4916045;29;20588;-72
2023/09/10 03:51:47;;;;;;;13.65;9.73;;;;;19.00;98761.00;;;;4916151;29;20048;-74
2023/09/10 03:54:14;;;;;;;11.48;10.18;;;;;19.00;98759.00;;;;4915316;29;20131;-73
2023/09/10 03:56:41;;;;;;;14.73;9.48;;;;;19.00;98758.00;;;;4917370;29;20111;-72
2023/09/10 03:59:08;;;;;;;11.52;10.35;;;;;18.90;98760.00;;;;4916109;29;20513;-71
2023/09/10 04:01:35;;;;;;;12.25;9.93;;;;;18.90;98753.00;;;;4916021;29;20064;-71
2023/09/10 04:04:06;;;;;;;13.55;10.13;;;;;18.90;98767.00;;;;4899809;29;20056;-73
2023/09/10 04:06:32;;;;;;;11.55;10.00;;;;;18.80;98771.00;;;;4917176;29;20055;-72
2023/09/10 04:08:59;;;;;;;10.30;9.20;;;;;18.80;98769.00;;;;4916004;29;20155;-71
2023/09/10 04:11:26;;;;;;;12.18;8.73;;;;;18.80;98768.00;;;;4917052;29;20729;-72
2023/09/10 04:13:53;;;;;;;9.35;8.15;;;;;18.80;98777.00;;;;4916569;29;20067;-73
2023/09/10 04:16:19;;;;;;;12.70;9.60;;;;;18.80;98775.00;;;;4915942;29;20062;-73
2023/09/10 04:18:46;;;;;;;10.90;8.93;;;;;18.80;98773.00;;;;4900088;29;20056;-73
2023/09/10 04:21:13;;;;;;;10.20;9.10;;;;;18.90;98766.00;;;;4931449;29;20036;-73
2023/09/10 04:23:40;;;;;;;10.43;9.43;;;;;18.90;98776.00;;;;4914906;29;20449;-73
2023/09/10 04:26:07;;;;;;;12.80;10.00;;;;;18.90;98771.00;;;;4915593;29;20508;-72
2023/09/10 04:28:34;;;;;;;10.70;9.65;;;;;18.90;98768.00;;;;4916541;29;20051;-73
2023/09/10 04:31:01;;;;;;;10.70;9.07;;;;;18.90;98771.00;;;;4915345;29;20052;-73
2023/09/10 04:33:28;;;;;;;10.85;9.32;;;;;18.80;98773.00;;;;4916162;29;20048;-73
2023/09/10 04:35:57;;;;;;;10.38;9.30;;;;;18.70;98781.00;;;;4916369;29;20142;-73
2023/09/10 04:38:24;;;;;;;10.65;9.05;;;;;18.70;98784.00;;;;4915285;29;20044;-73
2023/09/10 04:40:51;;;;;;;11.93;9.55;;;;;18.50;98784.00;;;;4915053;29;20074;-73
2023/09/10 04:43:18;;;;;;;10.93;9.85;;;;;18.40;98775.00;;;;4915179;29;20063;-73
2023/09/10 04:45:46;;;;;;;10.82;9.70;;;;;18.40;98778.00;;;;4915828;29;20052;-74
2023/09/10 04:48:13;;;;;;;11.43;9.48;;;;;18.40;98777.00;;;;4915719;29;20070;-73
2023/09/10 04:50:40;;;;;;;11.55;9.48;;;;;18.30;98779.00;;;;4915327;29;20071;-74
2023/09/10 04:53:07;;;;;;;11.13;8.85;;;;;18.20;98775.00;;;;4903234;29;20044;-73
2023/09/10 04:55:34;;;;;;;10.88;9.55;;;;;18.20;98779.00;;;;4918113;29;20055;-73
2023/09/10 04:58:01;;;;;;;10.07;9.05;;;;;18.20;98775.00;;;;4919168;29;20513;-72
2023/09/10 05:00:28;;;;;;;16.73;9.77;;;;;18.10;98782.00;;;;4918559;29;20103;-73
2023/09/10 05:02:54;;;;;;;10.18;8.88;;;;;18.10;98781.00;;;;4903035;29;20056;-72
2023/09/10 05:05:21;;;;;;;11.25;9.88;;;;;18.10;98786.00;;;;4918183;29;20151;-72
2023/09/10 05:07:49;;;;;;;10.18;9.18;;;;;18.10;98785.00;;;;4918924;29;20457;-72
2023/09/10 05:10:17;;;;;;;9.75;8.75;;;;;18.10;98786.00;;;;4903351;29;20044;-73
2023/09/10 05:12:43;;;;;;;10.50;8.88;;;;;18.10;98794.00;;;;4902870;29;20493;-72
2023/09/10 05:15:11;;;;;;;10.73;9.30;;;;;18.10;98796.00;;;;4918230;29;20060;-72
2023/09/10 05:17:38;;;;;;;11.90;9.30;;;;;18.10;98798.00;;;;4918634;29;20048;-72
2023/09/10 05:20:07;;;;;;;12.82;9.43;;;;;18.00;98797.00;;;;4902508;29;20064;-72
2023/09/10 05:22:34;;;;;;;11.40;10.15;;;;;18.00;98797.00;;;;4918111;29;20048;-72
2023/09/10 05:25:02;;;;;;;9.95;8.95;;;;;18.00;98810.00;;;;4917706;29;20067;-72
2023/09/10 05:27:29;;;;;;;12.98;9.77;;;;;18.00;98805.00;;;;4918235;29;20059;-73
2023/09/10 05:29:56;;;;;;;11.52;9.68;;;;;18.00;98801.00;;;;4902585;29;20044;-72
2023/09/10 05:32:22;;;;;;;10.38;9.07;;;;;18.10;98806.00;;;;4902820;29;20124;-72
2023/09/10 05:34:49;;;;;;;12.70;9.50;;;;;18.00;98803.00;;;;4917739;29;20490;-72
2023/09/10 05:37:16;;;;;;;12.00;9.63;;;;;18.10;98811.00;;;;4919235;29;20150;-72
2023/09/10 05:39:42;;;;;;;12.20;8.98;;;;;18.10;98799.00;;;;4918198;29;20129;-72
2023/09/10 05:42:09;;;;;;;10.82;9.20;;;;;18.10;98806.00;;;;4902217;29;20107;-72
2023/09/10 05:44:35;;;;;;;11.90;9.07;;;;;18.20;98807.00;;;;4917001;29;20413;-71
2023/09/10 05:47:02;;;;;;;11.10;9.40;;;;;18.30;98805.00;;;;4918069;29;20052;-72
2023/09/10 05:49:33;;;;;;;12.05;10.30;;;;;18.40;98812.00;;;;4902300;29;20048;-72
2023/09/10 05:51:59;;;;;;;10.32;8.35;;;;;18.50;98805.00;;;;4918045;29;20040;-72
2023/09/10 05:54:26;;;;;;;10.30;9.20;;;;;18.50;98807.00;;;;4918311;29;20128;-72
2023/09/10 05:56:53;;;;;;;9.95;8.93;;;;;18.70;98816.00;;;;4919047;29;20040;-73
2023/09/10 05:59:19;;;;;;;12.77;9.60;;;;;18.80;98818.00;;;;4901942;29;20048;-72
2023/09/10 06:01:46;;;;;;;11.40;9.35;;;;;18.80;98812.00;;;;4917119;29;20052;-73
2023/09/10 06:04:13;;;;;;;12.57;9.73;;;;;18.80;98813.00;;;;4916949;29;20099;-74
2023/09/10 06:06:40;;;;;;;11.48;10.27;;;;;18.90;98818.00;;;;4917510;29;20076;-73
2023/09/10 06:09:06;;;;;;;12.45;10.07;;;;;19.00;98829.00;;;;4917370;29;20056;-72
2023/09/10 06:11:33;;;;;;;11.98;9.50;;;;;19.10;98819.00;;;;4917599;29;20449;-73
2023/09/10 06:14:00;;;;;;;12.50;9.63;;;;;19.10;98815.00;;;;4917961;29;20485;-73
2023/09/10 06:16:26;;;;;;;9.80;8.80;;;;;19.20;98822.00;;;;4917255;29;20044;-73
2023/09/10 06:18:53;;;;;;;13.65;9.65;;;;;19.30;98828.00;;;;4917153;29;20051;-73
2023/09/10 06:21:20;;;;;;;12.52;9.73;;;;;19.20;98823.00;;;;4901669;29;20512;-73
2023/09/10 06:23:47;;;;;;;11.52;9.45;;;;;19.20;98824.00;;;;4916595;29;20086;-73
2023/09/10 06:26:13;;;;;;;11.13;9.02;;;;;19.20;98829.00;;;;4916982;29;20047;-73
2023/09/10 06:28:41;;;;;;;9.90;8.98;;;;;19.30;98823.00;;;;4917124;29;20147;-74
2023/09/10 06:31:09;;;;;;;11.43;8.75;;;;;19.30;98824.00;;;;4916782;29;20044;-73
2023/09/10 06:33:35;;;;;;;10.95;9.68;;;;;19.40;98830.00;;;;4916342;29;20044;-73
2023/09/10 06:36:02;;;;;;;10.52;9.38;;;;;19.50;98832.00;;;;4901280;29;20054;-73
2023/09/10 06:38:29;;;;;;;9.95;8.13;;;;;19.50;98833.00;;;;4918529;29;20119;-74
2023/09/10 06:40:56;;;;;;;11.00;9.43;;;;;19.60;98827.00;;;;4917607;29;20063;-72
2023/09/10 06:43:23;;;;;;;11.35;9.30;;;;;19.70;98831.00;;;;4903989;29;20052;-72
2023/09/10 06:46:12;;;;;;;10.13;9.07;;;;;19.90;98831.00;;;;4921545;29;20469;-72
2023/09/10 06:48:39;;;;;;;10.18;9.13;;;;;20.10;98834.00;;;;4921830;29;20100;-72
2023/09/10 06:51:06;;;;;;;9.85;8.90;;;;;20.10;98834.00;;;;4920013;29;20050;-72
2023/09/10 06:53:34;;;;;;;10.30;8.90;;;;;20.10;98839.00;;;;4918722;29;20516;-72
2023/09/10 06:56:01;;;;;;;10.93;9.43;;;;;20.10;98850.00;;;;4903673;29;20051;-73
2023/09/10 06:58:28;;;;;;;13.05;10.07;;;;;20.20;98841.00;;;;4918672;29;20050;-71
2023/09/10 07:00:54;;;;;;;12.48;9.25;;;;;20.30;98839.00;;;;4918548;29;20117;-71
2023/09/10 07:03:21;;;;;;;9.45;8.35;;;;;20.40;98842.00;;;;4918945;29;20048;-71
2023/09/10 07:05:48;;;;;;;11.35;8.98;;;;;20.50;98846.00;;;;4903089;29;20475;-72
2023/09/10 07:08:15;;;;;;;12.27;11.07;;;;;20.60;98848.00;;;;4920363;29;20502;-72
2023/09/10 07:10:41;;;;;;;11.27;9.15;;;;;20.80;98845.00;;;;4918837;29;20044;-72
2023/09/10 07:13:08;;;;;;;11.00;9.20;;;;;20.90;98843.00;;;;4918918;29;20062;-72
2023/09/10 07:15:36;;;;;;;16.63;14.77;;;;;21.00;98850.00;;;;4901616;29;20048;-72
2023/09/10 07:18:04;;;;;;;13.93;10.65;;;;;21.10;98851.00;;;;4903464;29;20076;-72
2023/09/10 07:20:30;;;;;;;13.68;9.93;;;;;21.20;98846.00;;;;4919397;29;20523;-71
2023/09/10 07:22:57;;;;;;;12.85;10.80;;;;;21.30;98839.00;;;;4918808;29;20066;-72
2023/09/10 07:25:24;;;;;;;12.30;10.07;;;;;21.50;98851.00;;;;4920572;29;20162;-72
2023/09/10 07:27:53;;;;;;;12.40;9.68;;;;;21.60;98849.00;;;;4918381;29;20048;-72
2023/09/10 07:30:20;;;;;;;11.20;9.20;;;;;21.70;98847.00;;;;4920021;29;20048;-72
2023/09/10 07:32:46;;;;;;;12.95;11.13;;;;;21.80;98850.00;;;;4921386;29;20137;-72
2023/09/10 07:35:15;;;;;;;11.40;9.57;;;;;21.90;98843.00;;;;4919160;29;20494;-72
2023/09/10 07:37:42;;;;;;;11.65;9.70;;;;;22.00;98847.00;;;;4919985;29;20052;-72
2023/09/10 07:40:09;;;;;;;23.67;11.05;;;;;22.00;98847.00;;;;4887992;29;20060;-69
2023/09/10 07:42:36;;;;;;;16.25;9.25;;;;;22.10;98852.00;;;;4918646;29;20115;-65
2023/09/10 07:45:03;;;;;;;19.95;12.35;;;;;22.40;98848.00;;;;4916773;29;20044;-66
2023/09/10 07:47:30;;;;;;;9.80;8.68;;;;;22.50;98848.00;;;;4916591;29;20143;-66
2023/09/10 07:49:56;;;;;;;24.15;18.42;;;;;22.60;98851.00;;;;4915671;29;20055;-68
2023/09/10 07:52:23;;;;;;;9.48;8.57;;;;;22.60;98846.00;;;;4916779;29;20437;-67
2023/09/10 07:54:49;;;;;;;11.15;9.05;;;;;22.70;98851.00;;;;4914841;29;20052;-67
2023/09/10 07:57:16;;;;;;;19.55;14.25;;;;;22.90;98850.00;;;;4916578;29;20127;-67
2023/09/10 07:59:43;;;;;;;11.57;9.20;;;;;23.00;98847.00;;;;4916913;29;20060;-71
2023/09/10 08:02:10;;;;;;;16.60;9.15;;;;;23.10;98847.00;;;;4915962;29;20044;-71
2023/09/10 08:04:36;;;;;;;10.20;8.02;;;;;23.30;98843.00;;;;4914855;29;20048;-68
2023/09/10 08:07:04;;;;;;;12.63;8.98;;;;;23.40;98846.00;;;;4899548;29;20052;-68
2023/09/10 08:09:31;;;;;;;9.60;8.57;;;;;23.60;98862.00;;;;4916878;29;20046;-68
2023/09/10 08:11:58;;;;;;;9.73;8.73;;;;;23.80;98857.00;;;;4931123;29;20048;-67
2023/09/10 08:14:25;;;;;;;10.90;9.18;;;;;24.00;98861.00;;;;4914933;29;20056;-66
2023/09/10 08:16:52;;;;;;;10.65;8.07;;;;;24.00;98857.00;;;;4916632;29;20059;-66
2023/09/10 08:19:19;;;;;;;13.07;9.80;;;;;24.20;98864.00;;;;4915876;29;20047;-66
2023/09/10 08:21:46;;;;;;;9.40;7.57;;;;;24.30;98852.00;;;;4915798;29;20044;-66
2023/09/10 08:24:12;;;;;;;8.75;7.80;;;;;24.50;98851.00;;;;4898472;29;20189;-66
2023/09/10 08:26:39;;;;;;;11.35;7.03;;;;;24.60;98857.00;;;;4930617;29;20082;-66
2023/09/10 08:29:05;;;;;;;8.25;7.38;;;;;24.70;98850.00;;;;4914619;29;20501;-66
2023/09/10 08:31:32;;;;;;;7.88;7.18;;;;;24.80;98852.00;;;;4899167;29;20413;-66
2023/09/10 08:33:59;;;;;;;8.38;7.40;;;;;24.90;98852.00;;;;4915420;29;20119;-66
2023/09/10 08:36:26;;;;;;;7.72;6.75;;;;;25.00;98850.00;;;;4914861;29;20052;-66
2023/09/10 08:38:53;;;;;;;10.48;7.63;;;;;25.10;98851.00;;;;4915884;29;20517;-66
2023/09/10 08:41:32;;;;;;;10.27;7.60;;;;;25.20;98854.00;;;;4914576;29;20059;-66
2023/09/10 08:44:01;;;;;;;10.13;7.80;;;;;25.40;98855.00;;;;4915204;29;20048;-66
2023/09/10 08:46:31;;;;;;;9.30;7.22;;;;;25.50;98862.00;;;;4914233;29;20072;-67
2023/09/10 08:48:59;;;;;;;7.82;7.05;;;;;25.60;98858.00;;;;4915625;29;20044;-68
2023/09/10 08:51:27;;;;;;;9.30;7.78;;;;;25.70;98857.00;;;;4914681;29;20040;-68
2023/09/10 08:53:57;;;;;;;7.45;6.75;;;;;25.90;98853.00;;;;4915012;29;20047;-67
2023/09/10 08:56:24;;;;;;;7.68;6.45;;;;;26.00;98861.00;;;;4915738;29;20606;-67
2023/09/10 08:58:52;;;;;;;7.18;6.38;;;;;26.10;98855.00;;;;4914595;29;20054;-67
2023/09/10 09:01:22;;;;;;;9.63;6.65;;;;;26.20;98858.00;;;;4915472;29;20048;-68
2023/09/10 09:03:49;;;;;;;7.97;5.88;;;;;26.30;98855.00;;;;4915164;29;20473;-69
2023/09/10 09:06:15;;;;;;;7.25;6.47;;;;;26.50;98865.00;;;;4915632;29;20054;-70
2023/09/10 09:08:48;;;;;;;7.68;6.68;;;;;26.60;98852.00;;;;4914347;29;20055;-70
2023/09/10 09:11:16;;;;;;;6.72;6.00;;;;;26.70;98851.00;;;;4915894;29;20456;-68
2023/09/10 09:13:48;;;;;;;6.90;6.20;;;;;26.80;98842.00;;;;4898143;29;20585;-69
2023/09/10 09:16:15;;;;;;;6.88;6.10;;;;;26.90;98840.00;;;;4914031;29;20052;-68
2023/09/10 09:18:43;;;;;;;6.97;6.28;;;;;27.10;98844.00;;;;4915791;29;20482;-69
2023/09/10 09:21:21;;;;;;;8.07;6.40;;;;;27.20;98845.00;;;;4898623;29;20718;-68
2023/09/10 09:23:57;;;;;;;6.82;6.07;;;;;27.30;98841.00;;;;4913854;29;20063;-68
2023/09/10 09:26:24;;;;;;;7.30;6.57;;;;;27.50;98843.00;;;;4914715;29;20055;-69
2023/09/10 09:28:51;;;;;;;7.78;6.55;;;;;27.50;98840.00;;;;4915921;29;20052;-69
2023/09/10 09:31:22;;;;;;;7.70;6.32;;;;;27.70;98851.00;;;;4914216;29;20056;-70
2023/09/10 09:33:49;;;;;;;10.98;6.75;;;;;27.80;98840.00;;;;4914784;29;20194;-70
2023/09/10 09:36:16;;;;;;;6.65;6.03;;;;;27.80;98833.00;;;;4914406;29;20103;-70
2023/09/10 09:38:46;;;;;;;10.40;7.43;;;;;27.90;98844.00;;;;4918578;29;20067;-70
2023/09/10 09:41:16;;;;;;;6.95;6.18;;;;;28.00;98836.00;;;;4917875;29;20048;-72
2023/09/10 09:43:44;;;;;;;7.38;6.40;;;;;28.10;98841.00;;;;4918249;29;20096;-70
2023/09/10 09:46:11;;;;;;;6.30;5.72;;;;;28.10;98833.00;;;;4917783;29;20324;-69
2023/09/10 09:48:38;;;;;;;11.27;6.07;;;;;28.10;98833.00;;;;4917722;29;20071;-70
2023/09/10 09:51:06;;;;;;;7.40;6.15;;;;;28.00;98831.00;;;;4917529;29;20078;-70
2023/09/10 09:53:33;;;;;;;10.88;6.40;;;;;28.10;98825.00;;;;4901239;29;20052;-70
2023/09/10 09:56:05;;;;;;;6.22;5.60;;;;;28.30;98826.00;;;;4901699;29;20044;-70
2023/09/10 09:58:33;;;;;;;7.03;5.68;;;;;28.50;98828.00;;;;4917706;29;20048;-70
2023/09/10 10:01:00;;;;;;;13.60;6.00;;;;;28.60;98826.00;;;;4917285;29;20628;-70
2023/09/10 10:03:31;;;;;;;10.25;6.05;;;;;28.70;98823.00;;;;4901451;29;20077;-70
2023/09/10 10:05:58;;;;;;;8.23;5.15;;;;;28.90;98826.00;;;;4917744;29;20249;-70
2023/09/10 10:08:32;;;;;;;11.55;6.15;;;;;28.90;98824.00;;;;4917246;29;20398;-69
2023/09/10 10:10:59;;;;;;;10.73;5.45;;;;;29.00;98815.00;;;;4917448;29;20056;-70
2023/09/10 10:13:27;;;;;;;12.88;5.63;;;;;29.10;98819.00;;;;4918078;29;20048;-69
2023/09/10 10:15:55;;;;;;;8.63;5.47;;;;;29.20;98812.00;;;;4918098;29;20071;-70
2023/09/10 10:18:23;;;;;;;8.52;6.05;;;;;29.20;98816.00;;;;4917479;29;20409;-70
2023/09/10 10:20:51;;;;;;;10.35;6.43;;;;;29.40;98811.00;;;;4901492;29;20071;-70
2023/09/10 10:23:19;;;;;;;13.85;5.60;;;;;29.40;98808.00;;;;4917379;29;20048;-70
2023/09/10 10:26:05;;;;;;;13.52;5.63;;;;;29.30;98810.00;;;;4904159;29;20059;-69
2023/09/10 10:28:35;;;;;;;9.15;5.35;;;;;29.40;98807.00;;;;4901586;29;20070;-70
2023/09/10 10:31:07;;;;;;;13.50;5.03;;;;;29.50;98794.00;;;;4919868;29;20107;-70
2023/09/10 10:33:36;;;;;;;13.15;5.03;;;;;29.60;98793.00;;;;4917075;29;20144;-70
2023/09/10 10:36:36;;;;;;;11.68;6.95;;;;;29.70;98797.00;;;;4918317;29;20135;-71
2023/09/10 10:39:08;;;;;;;14.82;5.53;;;;;29.70;98796.00;;;;4918372;29;20127;-70
2023/09/10 10:41:41;;;;;;;12.95;5.10;;;;;29.90;98792.00;;;;4919355;29;20052;-70
2023/09/10 10:44:21;;;;;;;13.75;5.38;;;;;30.10;98785.00;;;;4917687;29;20056;-71
2023/09/10 10:46:58;;;;;;;8.82;4.80;;;;;30.10;98784.00;;;;4918038;29;20075;-71
2023/09/10 10:49:28;;;;;;;12.10;5.45;;;;;30.10;98780.00;;;;4899491;29;20058;-70
2023/09/10 10:51:59;;;;;;;11.43;4.63;;;;;30.10;98778.00;;;;4916359;29;20044;-70
2023/09/10 10:54:26;;;;;;;11.07;4.68;;;;;30.20;98776.00;;;;4917069;29;20584;-71
2023/09/10 10:56:53;;;;;;;13.20;5.82;;;;;30.20;98774.00;;;;4917781;29;20482;-69
2023/09/10 10:59:20;;;;;;;11.93;5.10;;;;;30.20;98769.00;;;;4901875;29;20174;-70
2023/09/10 11:02:22;;;;;;;12.50;5.25;;;;;30.20;98774.00;;;;4900406;29;20048;-70
2023/09/10 11:04:57;;;;;;;15.98;5.50;;;;;30.40;98770.00;;;;4915778;29;20052;-69
2023/09/10 11:07:26;;;;;;;14.82;4.80;;;;;30.40;98764.00;;;;4900998;29;20052;-68
2023/09/10 11:09:53;;;;;;;11.88;5.25;;;;;30.50;98764.00;;;;4918201;29;20139;-69
2023/09/10 11:12:20;;;;;;;11.20;5.18;;;;;30.60;98772.00;;;;4917359;29;20036;-69
2023/09/10 11:14:59;;;;;;;12.05;4.82;;;;;30.80;98764.00;;;;4900018;29;20055;-66
2023/09/10 11:17:34;;;;;;;11.60;4.55;;;;;30.90;98767.00;;;;4916101;29;20044;-66
2023/09/10 11:20:03;;;;;;;11.52;4.82;;;;;30.90;98763.00;;;;4929042;29;20390;-66
2023/09/10 11:23:06;;;;;;;13.82;4.63;;;;;30.90;98766.00;;;;4934766;29;20047;-67
2023/09/10 11:25:33;;;;;;;11.35;4.78;;;;;30.90;98759.00;;;;4935560;29;20051;-66
2023/09/10 11:28:00;;;;;;;11.43;4.47;;;;;30.90;98752.00;;;;4935284;29;20043;-65
2023/09/10 11:30:27;;;;;;;11.25;4.97;;;;;30.90;98754.00;;;;4935038;29;20040;-68
2023/09/10 11:33:29;;;;;;;10.38;4.90;;;;;30.90;98759.00;;;;4919495;29;20052;-67
2023/09/10 11:35:59;;;;;;;13.80;4.82;;;;;30.80;98755.00;;;;4919651;29;20056;-67
2023/09/10 11:38:30;;;;;;;9.20;5.40;;;;;30.90;98765.00;;;;4921115;29;20044;-66
2023/09/10 11:40:57;;;;;;;8.93;5.13;;;;;31.00;98757.00;;;;4935488;29;20079;-67
2023/09/10 11:43:26;;;;;;;10.88;4.75;;;;;31.10;98755.00;;;;4919630;29;20055;-66
2023/09/10 11:45:53;;;;;;;12.70;4.35;;;;;31.30;98754.00;;;;4934539;29;20493;-67
2023/09/10 11:48:20;;;;;;;12.85;4.75;;;;;31.50;98762.00;;;;4935105;29;20099;-67
2023/09/10 11:50:47;;;;;;;12.80;5.15;;;;;31.60;98763.00;;;;4935026;29;20079;-67
2023/09/10 11:53:14;;;;;;;13.68;5.78;;;;;31.40;98761.00;;;;4935937;29;20046;-67
2023/09/10 11:55:41;;;;;;;12.70;4.57;;;;;31.40;98755.00;;;;4935200;29;20425;-67
2023/09/10 11:58:08;;;;;;;15.73;4.10;;;;;31.40;98766.00;;;;4918934;29;20063;-66
2023/09/10 12:00:35;;;;;;;17.95;3.85;;;;;31.40;98757.00;;;;4933825;29;20130;-68
2023/09/10 12:03:03;;;;;;;16.45;4.70;;;;;31.60;98764.00;;;;4935474;29;20039;-67
2023/09/10 12:05:29;;;;;;;8.77;4.25;;;;;31.60;98758.00;;;;4934405;29;20050;-66
2023/09/10 12:08:01;;;;;;;11.55;5.45;;;;;31.50;98755.00;;;;4935458;29;20058;-67
2023/09/10 12:10:28;;;;;;;12.57;4.82;;;;;31.50;98754.00;;;;4933127;29;20058;-67
2023/09/10 12:13:01;;;;;;;13.95;4.68;;;;;31.70;98752.00;;;;4935083;29;20103;-66
2023/09/10 12:15:29;;;;;;;16.40;4.32;;;;;31.80;98748.00;;;;4933284;29;20048;-67